createdAt,value
2022-08-12T00:00:13.709Z,23.82
2022-08-12T00:01:13.666Z,23.76
2022-08-12T00:02:13.619Z,23.68
2022-08-12T00:03:13.668Z,23.67
2022-08-12T00:04:13.535Z,23.70
2022-08-12T00:05:13.475Z,23.68
2022-08-12T00:06:13.425Z,23.64
2022-08-12T00:07:13.380Z,23.67
2022-08-12T00:08:13.329Z,23.68
2022-08-12T00:09:13.285Z,23.70
2022-08-12T00:10:13.250Z,23.62
2022-08-12T00:11:13.191Z,23.65
2022-08-12T00:12:13.157Z,23.62
2022-08-12T00:13:13.105Z,23.64
2022-08-12T00:14:13.045Z,23.62
2022-08-12T00:15:13.000Z,23.61
2022-08-12T00:16:12.952Z,23.64
2022-08-12T00:17:12.905Z,23.62
2022-08-12T00:18:12.857Z,23.57
2022-08-12T00:19:12.833Z,23.60
2022-08-12T00:20:12.779Z,23.52
2022-08-12T00:21:12.715Z,23.53
2022-08-12T00:22:12.667Z,23.57
2022-08-12T00:23:12.621Z,23.55
2022-08-12T00:24:12.750Z,23.58
2022-08-12T00:25:12.527Z,23.50
2022-08-12T00:26:21.573Z,23.55
2022-08-12T00:27:12.441Z,23.55
2022-08-12T00:28:12.382Z,23.49
2022-08-12T00:29:12.442Z,23.50
2022-08-12T00:30:12.284Z,23.43
2022-08-12T00:31:12.239Z,23.43
2022-08-12T00:32:13.475Z,23.39
2022-08-12T00:33:12.144Z,23.43
2022-08-12T00:34:12.094Z,23.40
2022-08-12T00:35:12.049Z,23.34
2022-08-12T00:36:18.663Z,23.34
2022-08-12T00:37:13.348Z,23.35
2022-08-12T00:38:11.904Z,23.35
2022-08-12T00:39:11.891Z,23.35
2022-08-12T00:40:12.145Z,23.40
2022-08-12T00:41:11.763Z,23.29
2022-08-12T00:42:11.764Z,23.39
2022-08-12T00:43:11.668Z,23.35
2022-08-12T00:44:11.618Z,23.20
2022-08-12T00:45:11.570Z,23.27
2022-08-12T00:46:11.533Z,23.26
2022-08-12T00:47:24.565Z,23.29
2022-08-12T00:48:11.427Z,23.17
2022-08-12T00:49:11.381Z,23.14
2022-08-12T00:50:11.330Z,23.15
2022-08-12T00:51:11.288Z,23.20
2022-08-12T00:52:11.243Z,23.07
2022-08-12T00:53:11.189Z,23.17
2022-08-12T00:54:11.140Z,23.17
2022-08-12T00:55:11.098Z,23.09
2022-08-12T00:56:11.045Z,23.08
2022-08-12T00:57:10.999Z,23.15
2022-08-12T00:58:10.951Z,23.04
2022-08-12T00:59:10.905Z,23.05
2022-08-12T01:00:10.856Z,23.08
2022-08-12T01:01:10.904Z,23.07
2022-08-12T01:02:12.626Z,23.04
2022-08-12T01:03:10.713Z,23.04
2022-08-12T01:04:10.664Z,23.04
2022-08-12T01:05:10.618Z,23.04
2022-08-12T01:06:10.567Z,22.94
2022-08-12T01:07:10.522Z,22.99
2022-08-12T01:08:10.472Z,22.97
2022-08-12T01:09:10.425Z,22.92
2022-08-12T01:10:10.377Z,22.93
2022-08-12T01:11:10.333Z,22.92
2022-08-12T01:12:10.278Z,22.94
2022-08-12T01:13:19.041Z,22.92
2022-08-12T01:14:10.183Z,22.87
2022-08-12T01:15:10.137Z,22.84
2022-08-12T01:16:10.094Z,22.86
2022-08-12T01:17:10.042Z,22.83
2022-08-12T01:18:09.992Z,22.82
2022-08-12T01:19:09.945Z,22.82
2022-08-12T01:20:09.896Z,22.80
2022-08-12T01:21:09.848Z,22.86
2022-08-12T01:22:09.807Z,22.78
2022-08-12T01:23:09.754Z,22.75
2022-08-12T01:24:29.446Z,22.69
2022-08-12T01:25:09.659Z,22.77
2022-08-12T01:26:09.607Z,22.77
2022-08-12T01:27:09.562Z,22.69
2022-08-12T01:28:09.510Z,22.72
2022-08-12T01:29:09.466Z,22.74
2022-08-12T01:30:09.417Z,22.62
2022-08-12T01:31:11.300Z,22.64
2022-08-12T01:32:09.319Z,22.72
2022-08-12T01:33:09.274Z,22.68
2022-08-12T01:34:28.546Z,22.64
2022-08-12T01:35:09.177Z,22.62
2022-08-12T01:36:09.129Z,22.64
2022-08-12T01:37:09.088Z,22.57
2022-08-12T01:38:09.031Z,22.60
2022-08-12T01:39:08.985Z,22.59
2022-08-12T01:40:34.146Z,22.57
2022-08-12T01:41:08.908Z,22.60
2022-08-12T01:42:08.843Z,22.57
2022-08-12T01:43:08.793Z,22.50
2022-08-12T01:44:08.747Z,22.49
2022-08-12T01:45:08.697Z,22.50
2022-08-12T01:46:08.648Z,22.53
2022-08-12T01:47:08.600Z,22.57
2022-08-12T01:48:08.549Z,22.52
2022-08-12T01:49:08.502Z,22.49
2022-08-12T01:50:08.454Z,22.46
2022-08-12T01:51:08.408Z,22.41
2022-08-12T01:52:20.959Z,22.37
2022-08-12T01:53:08.324Z,22.43
2022-08-12T01:54:08.275Z,22.39
2022-08-12T01:55:08.212Z,22.41
2022-08-12T01:56:08.169Z,22.38
2022-08-12T01:57:08.118Z,22.39
2022-08-12T01:58:08.066Z,22.38
2022-08-12T01:59:08.020Z,22.35
2022-08-12T02:00:07.971Z,22.35
2022-08-12T02:01:07.958Z,22.32
2022-08-12T02:02:07.903Z,22.34
2022-08-12T02:03:07.826Z,22.25
2022-08-12T02:04:07.777Z,22.31
2022-08-12T02:05:07.730Z,22.29
2022-08-12T02:06:07.683Z,22.20
2022-08-12T02:07:07.634Z,22.23
2022-08-12T02:08:07.586Z,22.25
2022-08-12T02:09:07.541Z,22.20
2022-08-12T02:10:07.488Z,22.20
2022-08-12T02:11:07.441Z,22.14
2022-08-12T02:12:08.718Z,22.22
2022-08-12T02:13:07.342Z,22.19
2022-08-12T02:14:07.293Z,22.22
2022-08-12T02:15:07.248Z,22.19
2022-08-12T02:16:07.195Z,22.14
2022-08-12T02:17:07.149Z,22.16
2022-08-12T02:18:07.100Z,22.09
2022-08-12T02:19:21.944Z,22.07
2022-08-12T02:20:07.002Z,22.12
2022-08-12T02:21:06.957Z,22.09
2022-08-12T02:22:06.908Z,22.12
2022-08-12T02:23:06.859Z,22.04
2022-08-12T02:24:06.808Z,22.09
2022-08-12T02:25:06.762Z,21.94
2022-08-12T02:26:07.657Z,22.01
2022-08-12T02:27:07.660Z,21.92
2022-08-12T02:28:08.240Z,21.97
2022-08-12T02:29:08.164Z,21.98
2022-08-12T02:30:08.160Z,21.95
2022-08-12T02:31:06.489Z,21.98
2022-08-12T02:32:06.422Z,21.95
2022-08-12T02:33:06.377Z,21.90
2022-08-12T02:34:06.324Z,21.88
2022-08-12T02:35:06.277Z,21.91
2022-08-12T02:36:06.228Z,21.94
2022-08-12T02:37:06.179Z,21.94
2022-08-12T02:38:06.129Z,21.83
2022-08-12T02:39:06.082Z,21.85
2022-08-12T02:40:06.033Z,21.90
2022-08-12T02:41:06.026Z,21.79
2022-08-12T02:42:05.935Z,21.85
2022-08-12T02:43:05.890Z,21.78
2022-08-12T02:44:05.839Z,21.75
2022-08-12T02:45:05.790Z,21.78
2022-08-12T02:46:08.307Z,21.81
2022-08-12T02:47:05.696Z,21.78
2022-08-12T02:48:05.642Z,21.69
2022-08-12T02:49:05.600Z,21.75
2022-08-12T02:50:05.546Z,21.81
2022-08-12T02:51:05.498Z,21.72
2022-08-12T02:52:05.450Z,21.74
2022-08-12T02:53:05.402Z,21.75
2022-08-12T02:54:06.318Z,21.72
2022-08-12T02:55:05.306Z,21.69
2022-08-12T02:56:05.253Z,21.69
2022-08-12T02:57:05.206Z,21.69
2022-08-12T02:58:06.880Z,21.66
2022-08-12T02:59:05.114Z,21.61
2022-08-12T03:00:05.059Z,21.67
2022-08-12T03:01:05.113Z,21.67
2022-08-12T03:02:04.963Z,21.67
2022-08-12T03:03:04.920Z,21.66
2022-08-12T03:04:04.863Z,21.64
2022-08-12T03:05:04.817Z,21.67
2022-08-12T03:06:04.768Z,21.57
2022-08-12T03:07:04.718Z,21.61
2022-08-12T03:08:04.668Z,21.54
2022-08-12T03:09:05.448Z,21.61
2022-08-12T03:10:06.975Z,21.57
2022-08-12T03:11:04.526Z,21.59
2022-08-12T03:12:04.472Z,21.51
2022-08-12T03:13:04.432Z,21.56
2022-08-12T03:14:04.379Z,21.57
2022-08-12T03:15:04.329Z,21.54
2022-08-12T03:16:04.280Z,21.54
2022-08-12T03:17:04.230Z,21.56
2022-08-12T03:18:25.487Z,21.53
2022-08-12T03:19:04.143Z,21.53
2022-08-12T03:20:09.700Z,21.48
2022-08-12T03:21:04.158Z,21.46
2022-08-12T03:22:09.420Z,21.44
2022-08-12T03:23:03.939Z,21.46
2022-08-12T03:24:03.887Z,21.51
2022-08-12T03:25:03.840Z,21.41
2022-08-12T03:26:03.789Z,21.42
2022-08-12T03:27:03.743Z,21.42
2022-08-12T03:28:03.693Z,21.41
2022-08-12T03:29:03.645Z,21.38
2022-08-12T03:30:03.594Z,21.38
2022-08-12T03:31:03.548Z,21.38
2022-08-12T03:32:03.496Z,21.41
2022-08-12T03:33:03.451Z,21.36
2022-08-12T03:34:03.598Z,21.44
2022-08-12T03:35:03.354Z,21.41
2022-08-12T03:36:03.303Z,21.36
2022-08-12T03:37:03.253Z,21.27
2022-08-12T03:38:03.205Z,21.38
2022-08-12T03:39:03.156Z,21.27
2022-08-12T03:40:03.163Z,21.34
2022-08-12T03:41:03.056Z,21.30
2022-08-12T03:42:03.008Z,21.29
2022-08-12T03:43:02.961Z,21.29
2022-08-12T03:44:02.911Z,21.23
2022-08-12T03:45:02.860Z,21.26
2022-08-12T03:46:02.814Z,21.21
2022-08-12T03:47:02.761Z,21.23
2022-08-12T03:48:02.714Z,21.23
2022-08-12T03:49:02.664Z,21.17
2022-08-12T03:50:02.615Z,21.20
2022-08-12T03:51:02.566Z,21.17
2022-08-12T03:52:02.516Z,21.19
2022-08-12T03:53:02.469Z,21.20
2022-08-12T03:54:02.419Z,21.11
2022-08-12T03:55:02.372Z,21.17
2022-08-12T03:56:02.323Z,21.14
2022-08-12T03:57:02.272Z,21.08
2022-08-12T03:58:02.229Z,21.13
2022-08-12T03:59:02.175Z,21.11
2022-08-12T04:00:02.125Z,21.06
2022-08-12T04:01:02.177Z,21.08
2022-08-12T04:02:02.026Z,21.09
2022-08-12T04:03:02.036Z,21.06
2022-08-12T04:04:01.929Z,21.11
2022-08-12T04:05:01.877Z,21.06
2022-08-12T04:06:01.834Z,21.04
2022-08-12T04:07:01.782Z,21.02
2022-08-12T04:08:01.736Z,21.01
2022-08-12T04:09:01.681Z,20.98
2022-08-12T04:10:01.638Z,20.99
2022-08-12T04:11:01.583Z,20.91
2022-08-12T04:12:01.537Z,20.96
2022-08-12T04:13:01.484Z,21.01
2022-08-12T04:14:01.437Z,20.99
2022-08-12T04:15:01.388Z,20.90
2022-08-12T04:16:01.338Z,20.84
2022-08-12T04:17:01.290Z,20.90
2022-08-12T04:18:07.028Z,20.89
2022-08-12T04:19:01.190Z,20.84
2022-08-12T04:20:01.151Z,20.87
2022-08-12T04:21:01.091Z,20.84
2022-08-12T04:22:03.331Z,20.89
2022-08-12T04:23:00.994Z,20.79
2022-08-12T04:24:00.947Z,20.83
2022-08-12T04:25:00.892Z,20.91
2022-08-12T04:26:00.849Z,20.84
2022-08-12T04:27:00.796Z,20.79
2022-08-12T04:28:11.190Z,20.84
2022-08-12T04:29:00.696Z,20.87
2022-08-12T04:30:31.171Z,20.80
2022-08-12T04:31:00.597Z,20.86
2022-08-12T04:32:00.550Z,20.86
2022-08-12T04:33:00.499Z,20.87
2022-08-12T04:34:00.451Z,20.89
2022-08-12T04:35:00.400Z,20.80
2022-08-12T04:36:00.353Z,20.84
2022-08-12T04:37:00.304Z,20.71
2022-08-12T04:38:01.108Z,20.86
2022-08-12T04:39:00.202Z,20.74
2022-08-12T04:40:00.182Z,20.81
2022-08-12T04:41:00.106Z,20.83
2022-08-12T04:42:00.059Z,20.81
2022-08-12T04:43:00.005Z,20.71
2022-08-12T04:44:02.101Z,20.68
2022-08-12T04:44:59.913Z,20.69
2022-08-12T04:45:59.859Z,20.72
2022-08-12T04:46:59.808Z,20.69
2022-08-12T04:47:59.760Z,20.72
2022-08-12T04:48:59.710Z,20.68
2022-08-12T04:49:59.663Z,20.66
2022-08-12T04:51:10.212Z,20.64
2022-08-12T04:51:59.795Z,20.65
2022-08-12T04:52:59.510Z,20.64
2022-08-12T04:54:14.200Z,20.62
2022-08-12T04:54:59.414Z,20.66
2022-08-12T04:55:59.364Z,20.59
2022-08-12T04:57:04.846Z,20.68
2022-08-12T04:57:59.278Z,20.61
2022-08-12T04:58:59.213Z,20.64
2022-08-12T04:59:59.165Z,20.66
2022-08-12T05:00:59.114Z,20.62
2022-08-12T05:01:59.153Z,20.51
2022-08-12T05:02:59.157Z,20.58
2022-08-12T05:03:58.969Z,20.61
2022-08-12T05:05:00.602Z,20.62
2022-08-12T05:05:58.868Z,20.64
2022-08-12T05:06:58.819Z,20.61
2022-08-12T05:07:58.769Z,20.58
2022-08-12T05:08:58.722Z,20.62
2022-08-12T05:09:59.715Z,20.58
2022-08-12T05:10:58.656Z,20.65
2022-08-12T05:11:58.571Z,20.64
2022-08-12T05:12:58.520Z,20.59
2022-08-12T05:13:58.471Z,20.58
2022-08-12T05:14:58.421Z,20.61
2022-08-12T05:16:05.246Z,20.64
2022-08-12T05:16:58.323Z,20.62
2022-08-12T05:18:00.043Z,20.65
2022-08-12T05:18:58.223Z,20.66
2022-08-12T05:19:58.203Z,20.64
2022-08-12T05:20:58.122Z,20.66
2022-08-12T05:21:58.076Z,20.59
2022-08-12T05:23:01.071Z,20.61
2022-08-12T05:24:02.722Z,20.65
2022-08-12T05:24:57.930Z,20.66
2022-08-12T05:25:57.880Z,20.64
2022-08-12T05:26:57.826Z,20.66
2022-08-12T05:27:58.473Z,20.71
2022-08-12T05:28:57.726Z,20.62
2022-08-12T05:30:12.208Z,20.65
2022-08-12T05:30:57.629Z,20.74
2022-08-12T05:31:57.579Z,20.68
2022-08-12T05:33:00.331Z,20.71
2022-08-12T05:33:57.480Z,20.69
2022-08-12T05:34:57.431Z,20.76
2022-08-12T05:35:57.388Z,20.71
2022-08-12T05:36:57.333Z,20.76
2022-08-12T05:37:57.282Z,20.80
2022-08-12T05:38:57.234Z,20.79
2022-08-12T05:39:57.311Z,20.80
2022-08-12T05:40:57.130Z,20.81
2022-08-12T05:41:57.083Z,20.72
2022-08-12T05:42:57.032Z,20.76
2022-08-12T05:43:56.984Z,20.84
2022-08-12T05:44:56.934Z,20.84
2022-08-12T05:45:56.888Z,20.87
2022-08-12T05:46:56.834Z,20.84
2022-08-12T05:47:56.785Z,20.83
2022-08-12T05:48:56.736Z,20.72
2022-08-12T05:49:56.687Z,20.80
2022-08-12T05:50:56.637Z,20.84
2022-08-12T05:51:56.587Z,20.81
2022-08-12T05:52:56.537Z,20.90
2022-08-12T05:53:56.487Z,20.91
2022-08-12T05:54:57.751Z,20.81
2022-08-12T05:55:56.387Z,20.90
2022-08-12T05:56:56.338Z,20.84
2022-08-12T05:57:56.288Z,20.87
2022-08-12T05:58:56.242Z,20.90
2022-08-12T05:59:56.256Z,20.84
2022-08-12T06:00:56.140Z,20.98
2022-08-12T06:02:11.560Z,20.93
2022-08-12T06:02:56.079Z,21.02
2022-08-12T06:03:55.996Z,20.95
2022-08-12T06:04:55.940Z,20.99
2022-08-12T06:05:55.963Z,20.96
2022-08-12T06:06:55.849Z,20.93
2022-08-12T06:08:01.284Z,20.98
2022-08-12T06:08:55.741Z,21.01
2022-08-12T06:09:55.810Z,21.02
2022-08-12T06:10:55.647Z,20.99
2022-08-12T06:12:06.235Z,21.04
2022-08-12T06:12:55.547Z,21.09
2022-08-12T06:13:55.497Z,21.08
2022-08-12T06:14:55.443Z,21.09
2022-08-12T06:15:55.395Z,21.14
2022-08-12T06:16:55.355Z,21.17
2022-08-12T06:17:55.303Z,21.09
2022-08-12T06:18:55.247Z,21.14
2022-08-12T06:20:27.566Z,21.09
2022-08-12T06:20:55.149Z,21.19
2022-08-12T06:21:55.098Z,21.19
2022-08-12T06:22:55.256Z,21.26
2022-08-12T06:23:55.000Z,21.27
2022-08-12T06:24:54.956Z,21.29
2022-08-12T06:25:54.902Z,21.20
2022-08-12T06:26:54.850Z,21.21
2022-08-12T06:28:07.624Z,21.23
2022-08-12T06:28:54.752Z,21.35
2022-08-12T06:30:09.311Z,21.29
2022-08-12T06:31:22.603Z,21.27
2022-08-12T06:31:54.603Z,21.29
2022-08-12T06:33:11.296Z,21.36
2022-08-12T06:33:59.464Z,21.44
2022-08-12T06:35:25.936Z,21.39
2022-08-12T06:35:57.506Z,21.42
2022-08-12T06:36:54.357Z,21.36
2022-08-12T06:37:56.406Z,21.45
2022-08-12T06:38:54.257Z,21.44
2022-08-12T06:39:54.232Z,21.50
2022-08-12T06:40:54.160Z,21.38
2022-08-12T06:42:05.138Z,21.41
2022-08-12T06:42:54.059Z,21.53
2022-08-12T06:44:04.864Z,21.48
2022-08-12T06:44:53.960Z,21.48
2022-08-12T06:45:53.915Z,21.56
2022-08-12T06:46:53.863Z,21.54
2022-08-12T06:47:53.812Z,21.61
2022-08-12T06:48:53.762Z,21.59
2022-08-12T06:49:53.714Z,21.63
2022-08-12T06:50:53.670Z,21.61
2022-08-12T06:51:56.202Z,21.67
2022-08-12T06:52:53.564Z,21.66
2022-08-12T06:53:53.516Z,21.63
2022-08-12T06:54:53.465Z,21.63
2022-08-12T06:55:58.205Z,21.66
2022-08-12T06:57:57.848Z,21.75
2022-08-12T06:58:05.070Z,21.61
2022-08-12T06:58:53.268Z,21.78
2022-08-12T06:59:53.219Z,21.75
2022-08-12T07:00:53.270Z,21.81
2022-08-12T07:01:53.123Z,21.79
2022-08-12T07:02:53.072Z,21.75
2022-08-12T07:03:53.023Z,21.82
2022-08-12T07:04:52.971Z,21.79
2022-08-12T07:05:52.926Z,21.90
2022-08-12T07:06:52.874Z,21.85
2022-08-12T07:07:52.826Z,21.88
2022-08-12T07:08:52.776Z,21.95
2022-08-12T07:09:58.121Z,22.01
2022-08-12T07:10:52.681Z,21.97
2022-08-12T07:11:52.632Z,22.01
2022-08-12T07:12:52.578Z,21.92
2022-08-12T07:14:11.506Z,22.01
2022-08-12T07:14:52.479Z,22.01
2022-08-12T07:16:07.239Z,22.01
2022-08-12T07:16:52.386Z,22.06
2022-08-12T07:17:52.335Z,22.12
2022-08-12T07:18:52.284Z,22.09
2022-08-12T07:19:52.253Z,22.06
2022-08-12T07:20:53.417Z,22.19
2022-08-12T07:21:59.789Z,22.20
2022-08-12T07:22:52.086Z,22.22
2022-08-12T07:23:52.039Z,22.17
2022-08-12T07:24:51.991Z,22.19
2022-08-12T07:25:55.211Z,22.20
2022-08-12T07:26:51.890Z,22.20
2022-08-12T07:27:51.847Z,22.22
2022-08-12T07:28:51.791Z,22.31
2022-08-12T07:30:03.576Z,22.20
2022-08-12T07:30:51.696Z,22.34
2022-08-12T07:31:51.647Z,22.37
2022-08-12T07:32:51.662Z,22.32
2022-08-12T07:33:51.547Z,22.37
2022-08-12T07:34:51.498Z,22.35
2022-08-12T07:35:51.450Z,22.38
2022-08-12T07:36:51.398Z,22.35
2022-08-12T07:37:51.352Z,22.39
2022-08-12T07:38:51.301Z,22.37
2022-08-12T07:40:00.280Z,22.47
2022-08-12T07:40:51.202Z,22.50
2022-08-12T07:41:51.160Z,22.38
2022-08-12T07:42:51.157Z,22.49
2022-08-12T07:43:51.058Z,22.53
2022-08-12T07:44:51.832Z,22.50
2022-08-12T07:45:50.958Z,22.52
2022-08-12T07:46:50.909Z,22.59
2022-08-12T07:47:50.964Z,22.60
2022-08-12T07:48:50.810Z,22.56
2022-08-12T07:50:05.373Z,22.52
2022-08-12T07:50:50.723Z,22.56
2022-08-12T07:51:50.666Z,22.53
2022-08-12T07:52:50.614Z,22.67
2022-08-12T07:54:00.418Z,22.57
2022-08-12T07:54:50.517Z,22.64
2022-08-12T07:55:50.469Z,22.62
2022-08-12T07:56:50.419Z,22.64
2022-08-12T07:57:50.372Z,22.64
2022-08-12T07:58:50.324Z,22.75
2022-08-12T07:59:50.273Z,22.74
2022-08-12T08:00:50.227Z,22.69
2022-08-12T08:01:50.201Z,22.74
2022-08-12T08:02:50.129Z,22.74
2022-08-12T08:03:50.076Z,22.75
2022-08-12T08:04:50.028Z,22.75
2022-08-12T08:05:49.979Z,22.77
2022-08-12T08:06:49.950Z,22.77
2022-08-12T08:07:49.881Z,22.82
2022-08-12T08:08:49.836Z,22.83
2022-08-12T08:09:49.784Z,22.84
2022-08-12T08:10:49.738Z,22.84
2022-08-12T08:11:49.686Z,22.86
2022-08-12T08:12:49.638Z,22.87
2022-08-12T08:13:49.591Z,22.86
2022-08-12T08:14:50.203Z,22.92
2022-08-12T08:16:02.932Z,22.90
2022-08-12T08:16:49.444Z,22.97
2022-08-12T08:17:49.394Z,23.01
2022-08-12T08:18:49.347Z,22.94
2022-08-12T08:20:03.894Z,22.96
2022-08-12T08:20:49.250Z,22.99
2022-08-12T08:21:49.200Z,22.93
2022-08-12T08:22:49.152Z,23.04
2022-08-12T08:23:56.069Z,22.97
2022-08-12T08:24:49.057Z,23.05
2022-08-12T08:25:49.004Z,23.05
2022-08-12T08:26:48.957Z,23.02
2022-08-12T08:27:48.907Z,23.08
2022-08-12T08:28:48.861Z,23.07
2022-08-12T08:29:48.809Z,23.14
2022-08-12T08:30:50.505Z,23.20
2022-08-12T08:31:48.711Z,23.07
2022-08-12T08:32:48.663Z,23.14
2022-08-12T08:34:05.182Z,23.17
2022-08-12T08:34:54.030Z,23.20
2022-08-12T08:35:48.518Z,23.19
2022-08-12T08:36:48.469Z,23.14
2022-08-12T08:37:48.426Z,23.19
2022-08-12T08:38:58.079Z,23.22
2022-08-12T08:39:48.422Z,23.27
2022-08-12T08:40:48.276Z,23.24
2022-08-12T08:42:18.108Z,23.26
2022-08-12T08:42:51.244Z,23.34
2022-08-12T08:43:48.129Z,23.26
2022-08-12T08:44:50.375Z,23.32
2022-08-12T08:45:48.031Z,23.35
2022-08-12T08:46:47.987Z,23.29
2022-08-12T08:47:47.947Z,23.32
2022-08-12T08:48:47.892Z,23.38
2022-08-12T08:49:47.837Z,23.31
2022-08-12T08:50:47.790Z,23.31
2022-08-12T08:51:47.739Z,23.40
2022-08-12T08:52:47.859Z,23.43
2022-08-12T08:53:52.814Z,23.46
2022-08-12T08:54:47.597Z,23.45
2022-08-12T08:56:04.038Z,23.47
2022-08-12T08:56:47.499Z,23.53
2022-08-12T08:57:47.482Z,23.60
2022-08-12T08:58:47.403Z,23.49
2022-08-12T08:59:51.881Z,23.57
2022-08-12T09:00:47.672Z,23.52
2022-08-12T09:01:47.313Z,23.57
2022-08-12T09:02:49.033Z,23.60
2022-08-12T09:05:07.307Z,23.61
2022-08-12T09:06:02.238Z,23.64
2022-08-12T09:06:53.397Z,23.67
2022-08-12T09:07:51.821Z,23.68
2022-08-12T09:08:46.922Z,23.62
2022-08-12T09:10:47.234Z,23.64
2022-08-12T09:12:54.249Z,23.67
2022-08-12T09:14:11.253Z,23.76
2022-08-12T09:14:50.985Z,23.67
2022-08-12T09:15:55.755Z,23.82
2022-08-12T09:16:50.088Z,23.72
2022-08-12T09:17:46.483Z,23.77
2022-08-12T09:18:46.437Z,23.80
2022-08-12T09:19:46.385Z,23.82
2022-08-12T09:20:50.748Z,23.77
2022-08-12T09:21:55.119Z,23.82
2022-08-12T09:22:46.928Z,23.80
2022-08-12T09:23:59.229Z,23.86
2022-08-12T09:24:46.185Z,23.83
2022-08-12T09:25:48.387Z,23.89
2022-08-12T09:26:46.888Z,23.80
2022-08-12T09:28:04.208Z,23.85
2022-08-12T09:30:11.379Z,23.90
2022-08-12T09:30:45.860Z,23.98
2022-08-12T09:32:07.499Z,23.90
2022-08-12T09:33:04.144Z,23.94
2022-08-12T09:34:28.388Z,23.98
2022-08-12T09:34:50.732Z,23.95
2022-08-12T09:35:46.224Z,23.94
2022-08-12T09:36:57.869Z,24.01
2022-08-12T09:37:57.583Z,24.02
2022-08-12T09:38:59.097Z,24.01
2022-08-12T09:40:07.902Z,24.02
2022-08-12T09:40:57.045Z,24.05
2022-08-12T09:42:34.886Z,24.04
2022-08-12T09:42:54.155Z,24.08
2022-08-12T09:43:46.780Z,24.04
2022-08-12T09:44:45.236Z,24.05
2022-08-12T09:46:11.275Z,24.13
2022-08-12T09:46:45.158Z,24.12
2022-08-12T09:47:45.037Z,24.08
2022-08-12T09:48:56.446Z,24.13
2022-08-12T09:49:44.944Z,24.07
2022-08-12T09:50:50.603Z,24.13
2022-08-12T09:51:44.848Z,24.17
2022-08-12T09:52:45.631Z,24.23
2022-08-12T09:53:45.809Z,24.20
2022-08-12T09:54:44.703Z,24.22
2022-08-12T09:56:06.259Z,24.26
2022-08-12T09:57:00.513Z,24.31
2022-08-12T09:58:45.199Z,24.32
2022-08-12T09:58:58.289Z,24.35
2022-08-12T10:00:16.222Z,24.32
2022-08-12T10:00:51.725Z,24.27
2022-08-12T10:02:45.303Z,24.34
2022-08-12T10:02:49.857Z,24.32
2022-08-12T10:04:03.741Z,24.32
2022-08-12T10:04:51.587Z,24.44
2022-08-12T10:06:27.575Z,24.39
2022-08-12T10:06:54.758Z,24.42
2022-08-12T10:07:44.079Z,24.38
2022-08-12T10:08:44.033Z,24.44
2022-08-12T10:09:57.197Z,24.42
2022-08-12T10:10:43.942Z,24.42
2022-08-12T10:12:10.287Z,24.45
2022-08-12T10:13:07.028Z,24.42
2022-08-12T10:13:43.789Z,24.41
2022-08-12T10:14:50.086Z,24.49
2022-08-12T10:16:01.851Z,24.45
2022-08-12T10:16:43.653Z,24.49
2022-08-12T10:18:06.193Z,24.53
2022-08-12T10:18:51.174Z,24.59
2022-08-12T10:19:51.556Z,24.76
2022-08-12T10:20:43.459Z,24.64
2022-08-12T10:21:43.413Z,24.90
2022-08-12T10:22:43.362Z,24.83
2022-08-12T10:23:45.961Z,24.90
2022-08-12T10:24:43.266Z,24.87
2022-08-12T10:26:35.118Z,24.85
2022-08-12T10:26:43.170Z,24.90
2022-08-12T10:28:04.563Z,24.85
2022-08-12T10:28:43.075Z,24.83
2022-08-12T10:30:37.613Z,24.83
2022-08-12T10:30:46.958Z,24.77
2022-08-12T10:32:19.569Z,24.83
2022-08-12T10:33:02.543Z,24.82
2022-08-12T10:33:55.631Z,24.76
2022-08-12T10:34:53.735Z,24.85
2022-08-12T10:35:42.738Z,24.69
2022-08-12T10:36:44.267Z,24.76
2022-08-12T10:38:33.964Z,24.76
2022-08-12T10:38:44.109Z,24.69
2022-08-12T10:40:01.090Z,24.69
2022-08-12T10:40:42.555Z,24.73
2022-08-12T10:41:58.309Z,24.69
2022-08-12T10:42:45.971Z,24.75
2022-08-12T10:43:55.387Z,24.57
2022-08-12T10:44:42.329Z,24.57
2022-08-12T10:45:42.265Z,24.63
2022-08-12T10:46:42.219Z,24.60
2022-08-12T10:48:15.842Z,24.57
2022-08-12T10:48:42.122Z,24.56
2022-08-12T10:50:03.694Z,24.56
2022-08-12T10:51:00.837Z,24.75
2022-08-12T10:52:04.571Z,24.61
2022-08-12T10:52:41.932Z,24.64
2022-08-12T10:53:45.908Z,24.68
2022-08-12T10:54:41.839Z,24.63
2022-08-12T10:55:41.788Z,24.59
2022-08-12T10:56:41.743Z,24.68
2022-08-12T10:58:15.462Z,24.64
2022-08-12T10:58:46.813Z,24.75
2022-08-12T11:00:31.927Z,24.60
2022-08-12T11:00:54.973Z,24.63
2022-08-12T11:04:18.180Z,24.68
2022-08-12T11:04:19.881Z,24.71
2022-08-12T11:04:23.465Z,24.68
2022-08-12T11:04:49.231Z,24.64
2022-08-12T11:07:03.390Z,24.60
2022-08-12T11:07:05.240Z,24.67
2022-08-12T11:08:37.114Z,24.69
2022-08-12T11:08:42.949Z,24.68
2022-08-12T11:09:55.757Z,24.71
2022-08-12T11:10:41.115Z,24.79
2022-08-12T11:12:35.931Z,24.79
2022-08-12T11:13:00.024Z,24.76
2022-08-12T11:13:46.952Z,24.73
2022-08-12T11:14:50.238Z,24.71
2022-08-12T11:16:19.382Z,24.64
2022-08-12T11:16:40.790Z,24.71
2022-08-12T11:17:52.838Z,24.68
2022-08-12T11:18:40.694Z,24.69
2022-08-12T11:19:40.647Z,24.69
2022-08-12T11:20:40.600Z,24.68
2022-08-12T11:21:58.456Z,24.75
2022-08-12T11:22:40.646Z,24.83
2022-08-12T11:23:40.457Z,24.82
2022-08-12T11:24:40.412Z,24.82
2022-08-12T11:25:56.572Z,24.76
2022-08-12T11:26:40.316Z,24.79
2022-08-12T11:27:40.481Z,24.90
2022-08-12T11:28:40.221Z,24.91
2022-08-12T11:30:05.702Z,24.88
2022-08-12T11:30:40.125Z,24.90
2022-08-12T11:31:56.378Z,24.85
2022-08-12T11:32:40.031Z,24.75
2022-08-12T11:34:05.100Z,24.90
2022-08-12T11:34:53.691Z,24.87
2022-08-12T11:35:39.887Z,24.88
2022-08-12T11:36:40.811Z,24.83
2022-08-12T11:37:58.140Z,24.82
2022-08-12T11:38:39.716Z,24.80
2022-08-12T11:40:42.627Z,24.92
2022-08-12T11:41:39.574Z,24.94
2022-08-12T11:42:46.370Z,24.90
2022-08-12T11:43:50.783Z,24.87
2022-08-12T11:44:43.036Z,24.85
2022-08-12T11:45:39.384Z,24.91
2022-08-12T11:46:39.339Z,24.90
2022-08-12T11:47:40.454Z,24.91
2022-08-12T11:48:51.467Z,24.92
2022-08-12T11:49:39.199Z,24.90
2022-08-12T11:50:42.132Z,24.91
2022-08-12T11:51:39.792Z,24.95
2022-08-12T11:52:55.417Z,24.87
2022-08-12T11:53:58.162Z,24.92
2022-08-12T11:54:38.963Z,24.95
2022-08-12T11:55:46.797Z,24.97
2022-08-12T11:56:41.940Z,24.88
2022-08-12T11:58:07.163Z,24.91
2022-08-12T12:01:58.837Z,24.91
2022-08-12T12:02:02.281Z,25.01
2022-08-12T12:02:38.630Z,24.91
2022-08-12T12:03:45.674Z,24.90
2022-08-12T12:04:38.507Z,24.98
2022-08-12T12:05:41.679Z,25.00
2022-08-12T12:06:38.404Z,24.97
2022-08-12T12:08:38.949Z,24.95
2022-08-12T12:08:42.635Z,24.95
2022-08-12T12:09:52.915Z,25.02
2022-08-12T12:10:38.214Z,25.06
2022-08-12T12:11:49.435Z,25.02
2022-08-12T12:12:38.119Z,25.00
2022-08-12T12:14:07.979Z,25.02
2022-08-12T12:14:39.854Z,24.95
2022-08-12T12:15:41.194Z,24.97
2022-08-12T12:16:38.087Z,25.05
2022-08-12T12:17:38.416Z,24.98
2022-08-12T12:18:37.845Z,25.05
2022-08-12T12:19:39.809Z,25.05
2022-08-12T12:20:37.744Z,24.98
2022-08-12T12:21:47.272Z,25.05
2022-08-12T12:22:37.698Z,25.13
2022-08-12T12:23:37.605Z,25.10
2022-08-12T12:24:37.557Z,25.02
2022-08-12T12:26:07.577Z,25.15
2022-08-12T12:26:38.494Z,25.12
2022-08-12T12:28:04.219Z,25.10
2022-08-12T12:28:39.475Z,25.07
2022-08-12T12:30:13.615Z,25.16
2022-08-12T12:30:37.444Z,25.15
2022-08-12T12:32:09.940Z,25.09
2022-08-12T12:32:37.182Z,25.16
2022-08-12T12:33:56.731Z,25.10
2022-08-12T12:34:37.091Z,25.15
2022-08-12T12:36:20.011Z,25.10
2022-08-12T12:36:36.998Z,25.12
2022-08-12T12:38:05.660Z,25.16
2022-08-12T12:38:36.901Z,25.16
2022-08-12T12:39:54.787Z,25.20
2022-08-12T12:40:39.626Z,25.13
2022-08-12T12:42:43.677Z,25.12
2022-08-12T12:42:43.678Z,25.17
2022-08-12T12:43:43.036Z,25.20
2022-08-12T12:44:42.208Z,25.20
2022-08-12T12:45:36.575Z,25.12
2022-08-12T12:46:36.524Z,25.19
2022-08-12T12:47:37.210Z,25.22
2022-08-12T12:48:36.431Z,25.16
2022-08-12T12:49:36.392Z,25.16
2022-08-12T12:50:45.242Z,25.20
2022-08-12T12:51:48.988Z,25.22
2022-08-12T12:52:36.244Z,25.19
2022-08-12T12:54:07.560Z,25.19
2022-08-12T12:54:36.151Z,25.17
2022-08-12T12:55:36.135Z,25.19
2022-08-12T12:56:36.056Z,25.22
2022-08-12T12:58:00.266Z,25.19
2022-08-12T12:58:35.962Z,25.17